sensor_id;sensor_type;location;lat;lon;timestamp;P1;durP1;ratioP1;P2;durP2;ratioP2
35434;SDS011;21556;55.782;37.528;2023-02-16T00:01:36;0.80;;;0.47;;
35434;SDS011;21556;55.782;37.528;2023-02-16T00:04:01;1.10;;;0.53;;
35434;SDS011;21556;55.782;37.528;2023-02-16T00:06:40;2.40;;;0.50;;
35434;SDS011;21556;55.782;37.528;2023-02-16T00:09:05;1.23;;;0.80;;
35434;SDS011;21556;55.782;37.528;2023-02-16T00:11:32;1.90;;;0.63;;
35434;SDS011;21556;55.782;37.528;2023-02-16T00:14:19;1.53;;;0.80;;
35434;SDS011;21556;55.782;37.528;2023-02-16T00:16:49;1.20;;;0.73;;
35434;SDS011;21556;55.782;37.528;2023-02-16T00:19:25;1.13;;;0.70;;
35434;SDS011;21556;55.782;37.528;2023-02-16T00:21:54;3.28;;;0.80;;
35434;SDS011;21556;55.782;37.528;2023-02-16T00:24:22;2.00;;;0.60;;
35434;SDS011;21556;55.782;37.528;2023-02-16T00:26:48;0.50;;;0.47;;
35434;SDS011;21556;55.782;37.528;2023-02-16T00:29:19;1.47;;;0.60;;
35434;SDS011;21556;55.782;37.528;2023-02-16T00:31:54;3.00;;;1.00;;
35434;SDS011;21556;55.782;37.528;2023-02-16T00:37:06;2.13;;;0.43;;
35434;SDS011;21556;55.782;37.528;2023-02-16T00:39:34;1.73;;;0.73;;
35434;SDS011;21556;55.782;37.528;2023-02-16T00:42:05;3.00;;;0.93;;
35434;SDS011;21556;55.782;37.528;2023-02-16T00:44:44;2.03;;;0.90;;
35434;SDS011;21556;55.782;37.528;2023-02-16T00:49:47;1.80;;;0.80;;
35434;SDS011;21556;55.782;37.528;2023-02-16T00:52:30;1.33;;;0.70;;
35434;SDS011;21556;55.782;37.528;2023-02-16T00:54:58;1.63;;;0.77;;
35434;SDS011;21556;55.782;37.528;2023-02-16T00:57:26;0.45;;;0.45;;
35434;SDS011;21556;55.782;37.528;2023-02-16T01:00:14;1.20;;;0.70;;
35434;SDS011;21556;55.782;37.528;2023-02-16T01:02:46;1.57;;;0.70;;
35434;SDS011;21556;55.782;37.528;2023-02-16T01:05:13;2.45;;;0.60;;
35434;SDS011;21556;55.782;37.528;2023-02-16T01:07:39;1.80;;;0.80;;
35434;SDS011;21556;55.782;37.528;2023-02-16T01:10:24;1.43;;;0.67;;
35434;SDS011;21556;55.782;37.528;2023-02-16T01:13:11;1.23;;;0.73;;
35434;SDS011;21556;55.782;37.528;2023-02-16T01:15:38;1.47;;;1.00;;
35434;SDS011;21556;55.782;37.528;2023-02-16T01:18:05;0.57;;;0.50;;
35434;SDS011;21556;55.782;37.528;2023-02-16T01:20:31;1.83;;;0.90;;
35434;SDS011;21556;55.782;37.528;2023-02-16T01:23:00;1.87;;;0.90;;
35434;SDS011;21556;55.782;37.528;2023-02-16T01:25:26;3.33;;;1.60;;
35434;SDS011;21556;55.782;37.528;2023-02-16T01:27:52;2.23;;;1.00;;
35434;SDS011;21556;55.782;37.528;2023-02-16T01:30:19;1.00;;;0.60;;
35434;SDS011;21556;55.782;37.528;2023-02-16T01:32:46;1.15;;;0.70;;
35434;SDS011;21556;55.782;37.528;2023-02-16T01:35:17;1.60;;;0.87;;
35434;SDS011;21556;55.782;37.528;2023-02-16T01:37:43;1.17;;;0.70;;
35434;SDS011;21556;55.782;37.528;2023-02-16T01:40:53;1.67;;;0.90;;
35434;SDS011;21556;55.782;37.528;2023-02-16T01:45:36;1.02;;;0.65;;
35434;SDS011;21556;55.782;37.528;2023-02-16T01:48:20;1.33;;;1.20;;
35434;SDS011;21556;55.782;37.528;2023-02-16T01:50:53;2.37;;;0.80;;
35434;SDS011;21556;55.782;37.528;2023-02-16T01:53:39;2.57;;;0.90;;
35434;SDS011;21556;55.782;37.528;2023-02-16T01:56:14;2.07;;;1.00;;
35434;SDS011;21556;55.782;37.528;2023-02-16T01:58:49;1.77;;;0.80;;
35434;SDS011;21556;55.782;37.528;2023-02-16T02:01:39;2.70;;;1.00;;
35434;SDS011;21556;55.782;37.528;2023-02-16T02:04:24;1.20;;;0.90;;
35434;SDS011;21556;55.782;37.528;2023-02-16T02:10:24;2.97;;;1.27;;
35434;SDS011;21556;55.782;37.528;2023-02-16T02:15:39;2.33;;;1.20;;
35434;SDS011;21556;55.782;37.528;2023-02-16T02:18:06;2.63;;;1.07;;
35434;SDS011;21556;55.782;37.528;2023-02-16T02:26:29;2.65;;;1.00;;
35434;SDS011;21556;55.782;37.528;2023-02-16T02:29:01;2.93;;;1.20;;
35434;SDS011;21556;55.782;37.528;2023-02-16T02:32:07;4.17;;;1.43;;
35434;SDS011;21556;55.782;37.528;2023-02-16T02:39:50;1.83;;;1.23;;
35434;SDS011;21556;55.782;37.528;2023-02-16T02:45:17;3.83;;;2.07;;
35434;SDS011;21556;55.782;37.528;2023-02-16T02:47:49;3.43;;;1.73;;
35434;SDS011;21556;55.782;37.528;2023-02-16T02:53:57;3.83;;;2.20;;
35434;SDS011;21556;55.782;37.528;2023-02-16T02:59:41;2.28;;;1.55;;
35434;SDS011;21556;55.782;37.528;2023-02-16T03:02:30;2.70;;;1.80;;
35434;SDS011;21556;55.782;37.528;2023-02-16T03:05:02;3.10;;;1.30;;
35434;SDS011;21556;55.782;37.528;2023-02-16T03:07:32;2.17;;;1.60;;
35434;SDS011;21556;55.782;37.528;2023-02-16T03:10:13;3.47;;;1.57;;
35434;SDS011;21556;55.782;37.528;2023-02-16T03:13:01;2.20;;;1.70;;
35434;SDS011;21556;55.782;37.528;2023-02-16T03:15:30;3.43;;;1.57;;
35434;SDS011;21556;55.782;37.528;2023-02-16T03:17:57;4.17;;;1.80;;
35434;SDS011;21556;55.782;37.528;2023-02-16T03:23:29;3.67;;;1.80;;
35434;SDS011;21556;55.782;37.528;2023-02-16T03:26:15;2.70;;;1.70;;
35434;SDS011;21556;55.782;37.528;2023-02-16T03:29:02;3.97;;;1.83;;
35434;SDS011;21556;55.782;37.528;2023-02-16T03:31:44;2.47;;;1.63;;
35434;SDS011;21556;55.782;37.528;2023-02-16T03:34:33;2.90;;;1.83;;
35434;SDS011;21556;55.782;37.528;2023-02-16T03:37:01;3.92;;;2.03;;
35434;SDS011;21556;55.782;37.528;2023-02-16T03:39:30;2.80;;;1.90;;
35434;SDS011;21556;55.782;37.528;2023-02-16T03:42:17;3.23;;;1.40;;
35434;SDS011;21556;55.782;37.528;2023-02-16T03:44:45;2.85;;;1.83;;
35434;SDS011;21556;55.782;37.528;2023-02-16T03:47:10;3.33;;;1.83;;
35434;SDS011;21556;55.782;37.528;2023-02-16T03:49:38;2.55;;;1.45;;
35434;SDS011;21556;55.782;37.528;2023-02-16T03:52:04;3.03;;;1.77;;
35434;SDS011;21556;55.782;37.528;2023-02-16T03:54:30;3.67;;;1.60;;
35434;SDS011;21556;55.782;37.528;2023-02-16T03:56:56;6.63;;;1.70;;
35434;SDS011;21556;55.782;37.528;2023-02-16T03:59:27;3.83;;;1.83;;
35434;SDS011;21556;55.782;37.528;2023-02-16T04:01:53;3.60;;;1.67;;
35434;SDS011;21556;55.782;37.528;2023-02-16T04:04:19;2.13;;;1.43;;
35434;SDS011;21556;55.782;37.528;2023-02-16T04:06:45;3.47;;;1.93;;
35434;SDS011;21556;55.782;37.528;2023-02-16T04:09:11;4.33;;;1.50;;
35434;SDS011;21556;55.782;37.528;2023-02-16T04:11:36;2.83;;;1.70;;
35434;SDS011;21556;55.782;37.528;2023-02-16T04:14:21;3.13;;;1.60;;
35434;SDS011;21556;55.782;37.528;2023-02-16T04:16:47;2.40;;;1.50;;
35434;SDS011;21556;55.782;37.528;2023-02-16T04:19:14;4.03;;;1.87;;
35434;SDS011;21556;55.782;37.528;2023-02-16T04:21:41;3.60;;;1.30;;
35434;SDS011;21556;55.782;37.528;2023-02-16T04:24:09;2.13;;;1.67;;
35434;SDS011;21556;55.782;37.528;2023-02-16T04:26:35;3.67;;;1.83;;
35434;SDS011;21556;55.782;37.528;2023-02-16T04:29:02;2.53;;;1.57;;
35434;SDS011;21556;55.782;37.528;2023-02-16T04:31:28;2.63;;;1.57;;
35434;SDS011;21556;55.782;37.528;2023-02-16T04:33:54;5.27;;;2.03;;
35434;SDS011;21556;55.782;37.528;2023-02-16T04:36:20;3.03;;;1.77;;
35434;SDS011;21556;55.782;37.528;2023-02-16T04:38:45;3.20;;;1.80;;
35434;SDS011;21556;55.782;37.528;2023-02-16T04:41:11;2.90;;;1.80;;
35434;SDS011;21556;55.782;37.528;2023-02-16T04:43:37;2.93;;;1.77;;
35434;SDS011;21556;55.782;37.528;2023-02-16T04:46:03;3.47;;;1.90;;
35434;SDS011;21556;55.782;37.528;2023-02-16T04:48:29;2.87;;;1.67;;
35434;SDS011;21556;55.782;37.528;2023-02-16T04:50:55;2.37;;;1.60;;
35434;SDS011;21556;55.782;37.528;2023-02-16T04:53:20;1.83;;;1.63;;
35434;SDS011;21556;55.782;37.528;2023-02-16T04:55:47;1.80;;;1.70;;
35434;SDS011;21556;55.782;37.528;2023-02-16T04:58:14;3.40;;;2.00;;
35434;SDS011;21556;55.782;37.528;2023-02-16T05:00:40;3.50;;;1.80;;
35434;SDS011;21556;55.782;37.528;2023-02-16T05:03:07;4.73;;;1.70;;
35434;SDS011;21556;55.782;37.528;2023-02-16T05:05:33;6.37;;;2.00;;
35434;SDS011;21556;55.782;37.528;2023-02-16T05:08:00;3.20;;;2.00;;
35434;SDS011;21556;55.782;37.528;2023-02-16T05:10:28;2.43;;;1.50;;
35434;SDS011;21556;55.782;37.528;2023-02-16T05:12:55;2.83;;;1.80;;
35434;SDS011;21556;55.782;37.528;2023-02-16T05:15:41;3.27;;;1.90;;
35434;SDS011;21556;55.782;37.528;2023-02-16T05:18:08;2.60;;;2.00;;
35434;SDS011;21556;55.782;37.528;2023-02-16T05:20:34;4.80;;;1.90;;
35434;SDS011;21556;55.782;37.528;2023-02-16T05:23:19;2.83;;;1.67;;
35434;SDS011;21556;55.782;37.528;2023-02-16T05:25:45;2.77;;;1.50;;
35434;SDS011;21556;55.782;37.528;2023-02-16T05:28:12;7.07;;;2.97;;
35434;SDS011;21556;55.782;37.528;2023-02-16T05:30:38;2.63;;;1.70;;
35434;SDS011;21556;55.782;37.528;2023-02-16T05:33:04;3.83;;;1.50;;
35434;SDS011;21556;55.782;37.528;2023-02-16T05:35:31;2.83;;;1.60;;
35434;SDS011;21556;55.782;37.528;2023-02-16T05:38:00;2.87;;;1.40;;
35434;SDS011;21556;55.782;37.528;2023-02-16T05:40:28;2.47;;;1.47;;
35434;SDS011;21556;55.782;37.528;2023-02-16T05:42:55;2.25;;;1.30;;
35434;SDS011;21556;55.782;37.528;2023-02-16T05:45:21;2.80;;;1.50;;
35434;SDS011;21556;55.782;37.528;2023-02-16T05:47:47;2.73;;;2.17;;
35434;SDS011;21556;55.782;37.528;2023-02-16T05:50:13;3.93;;;1.33;;
35434;SDS011;21556;55.782;37.528;2023-02-16T05:52:39;2.20;;;1.50;;
35434;SDS011;21556;55.782;37.528;2023-02-16T05:55:06;1.38;;;0.95;;
35434;SDS011;21556;55.782;37.528;2023-02-16T05:57:32;4.13;;;1.83;;
35434;SDS011;21556;55.782;37.528;2023-02-16T05:59:59;1.70;;;1.30;;
35434;SDS011;21556;55.782;37.528;2023-02-16T06:02:29;3.30;;;1.40;;
35434;SDS011;21556;55.782;37.528;2023-02-16T06:04:55;2.40;;;1.30;;
35434;SDS011;21556;55.782;37.528;2023-02-16T06:07:21;2.57;;;1.47;;
35434;SDS011;21556;55.782;37.528;2023-02-16T06:09:47;2.17;;;1.53;;
35434;SDS011;21556;55.782;37.528;2023-02-16T06:12:12;2.67;;;1.33;;
35434;SDS011;21556;55.782;37.528;2023-02-16T06:14:39;2.77;;;1.20;;
35434;SDS011;21556;55.782;37.528;2023-02-16T06:17:05;2.03;;;1.20;;
35434;SDS011;21556;55.782;37.528;2023-02-16T06:19:31;4.20;;;1.53;;
35434;SDS011;21556;55.782;37.528;2023-02-16T06:21:57;1.40;;;1.03;;
35434;SDS011;21556;55.782;37.528;2023-02-16T06:24:23;3.23;;;1.40;;
35434;SDS011;21556;55.782;37.528;2023-02-16T06:26:48;2.03;;;1.30;;
35434;SDS011;21556;55.782;37.528;2023-02-16T06:29:14;1.80;;;1.20;;
35434;SDS011;21556;55.782;37.528;2023-02-16T06:31:40;2.70;;;1.37;;
35434;SDS011;21556;55.782;37.528;2023-02-16T06:34:06;2.10;;;1.27;;
35434;SDS011;21556;55.782;37.528;2023-02-16T06:36:32;1.90;;;1.17;;
35434;SDS011;21556;55.782;37.528;2023-02-16T06:38:59;2.40;;;1.47;;
35434;SDS011;21556;55.782;37.528;2023-02-16T06:41:25;1.93;;;1.37;;
35434;SDS011;21556;55.782;37.528;2023-02-16T06:43:59;2.40;;;1.03;;
35434;SDS011;21556;55.782;37.528;2023-02-16T06:48:52;2.80;;;1.63;;
35434;SDS011;21556;55.782;37.528;2023-02-16T06:51:18;1.87;;;1.53;;
35434;SDS011;21556;55.782;37.528;2023-02-16T06:53:47;2.53;;;1.50;;
35434;SDS011;21556;55.782;37.528;2023-02-16T06:56:13;3.27;;;1.30;;
35434;SDS011;21556;55.782;37.528;2023-02-16T06:58:39;2.20;;;1.43;;
35434;SDS011;21556;55.782;37.528;2023-02-16T07:01:05;2.27;;;1.40;;
35434;SDS011;21556;55.782;37.528;2023-02-16T07:03:31;2.90;;;1.27;;
35434;SDS011;21556;55.782;37.528;2023-02-16T07:05:58;1.87;;;1.30;;
35434;SDS011;21556;55.782;37.528;2023-02-16T07:08:24;2.20;;;1.50;;
35434;SDS011;21556;55.782;37.528;2023-02-16T07:10:51;3.57;;;1.50;;
35434;SDS011;21556;55.782;37.528;2023-02-16T07:13:18;4.70;;;1.53;;
35434;SDS011;21556;55.782;37.528;2023-02-16T07:15:43;1.90;;;1.53;;
35434;SDS011;21556;55.782;37.528;2023-02-16T07:18:10;2.30;;;1.20;;
35434;SDS011;21556;55.782;37.528;2023-02-16T07:20:35;1.93;;;1.03;;
35434;SDS011;21556;55.782;37.528;2023-02-16T07:23:02;2.37;;;1.40;;
35434;SDS011;21556;55.782;37.528;2023-02-16T07:25:28;2.27;;;1.53;;
35434;SDS011;21556;55.782;37.528;2023-02-16T07:27:54;2.47;;;1.07;;
35434;SDS011;21556;55.782;37.528;2023-02-16T07:30:20;2.43;;;1.30;;
35434;SDS011;21556;55.782;37.528;2023-02-16T07:32:46;2.30;;;1.50;;
35434;SDS011;21556;55.782;37.528;2023-02-16T07:35:12;2.57;;;1.13;;
35434;SDS011;21556;55.782;37.528;2023-02-16T07:37:39;2.70;;;1.73;;
35434;SDS011;21556;55.782;37.528;2023-02-16T07:40:05;3.67;;;1.40;;
35434;SDS011;21556;55.782;37.528;2023-02-16T07:42:32;2.77;;;1.20;;
35434;SDS011;21556;55.782;37.528;2023-02-16T07:44:58;3.13;;;1.80;;
35434;SDS011;21556;55.782;37.528;2023-02-16T07:47:25;1.80;;;1.30;;
35434;SDS011;21556;55.782;37.528;2023-02-16T07:49:52;4.47;;;1.80;;
35434;SDS011;21556;55.782;37.528;2023-02-16T07:52:18;1.87;;;1.27;;
35434;SDS011;21556;55.782;37.528;2023-02-16T07:54:44;2.83;;;1.70;;
35434;SDS011;21556;55.782;37.528;2023-02-16T07:57:10;2.80;;;1.47;;
35434;SDS011;21556;55.782;37.528;2023-02-16T07:59:36;2.40;;;1.73;;
35434;SDS011;21556;55.782;37.528;2023-02-16T08:02:03;2.27;;;1.50;;
35434;SDS011;21556;55.782;37.528;2023-02-16T08:04:32;4.50;;;2.57;;
35434;SDS011;21556;55.782;37.528;2023-02-16T08:07:00;4.47;;;1.75;;
35434;SDS011;21556;55.782;37.528;2023-02-16T08:09:26;5.37;;;1.90;;
35434;SDS011;21556;55.782;37.528;2023-02-16T08:11:52;2.47;;;1.80;;
35434;SDS011;21556;55.782;37.528;2023-02-16T08:14:17;2.20;;;1.67;;
35434;SDS011;21556;55.782;37.528;2023-02-16T08:16:44;3.27;;;2.17;;
35434;SDS011;21556;55.782;37.528;2023-02-16T08:19:11;3.30;;;1.80;;
35434;SDS011;21556;55.782;37.528;2023-02-16T08:21:38;4.47;;;2.33;;
35434;SDS011;21556;55.782;37.528;2023-02-16T08:24:05;4.47;;;1.70;;
35434;SDS011;21556;55.782;37.528;2023-02-16T08:26:40;3.13;;;1.83;;
35434;SDS011;21556;55.782;37.528;2023-02-16T08:29:09;4.67;;;2.20;;
35434;SDS011;21556;55.782;37.528;2023-02-16T08:31:39;4.00;;;2.00;;
35434;SDS011;21556;55.782;37.528;2023-02-16T08:34:06;3.20;;;2.40;;
35434;SDS011;21556;55.782;37.528;2023-02-16T08:36:33;3.40;;;2.27;;
35434;SDS011;21556;55.782;37.528;2023-02-16T08:41:31;3.28;;;2.15;;
35434;SDS011;21556;55.782;37.528;2023-02-16T08:44:03;2.83;;;2.40;;
35434;SDS011;21556;55.782;37.528;2023-02-16T08:46:31;3.43;;;2.27;;
35434;SDS011;21556;55.782;37.528;2023-02-16T08:48:59;3.45;;;1.90;;
35434;SDS011;21556;55.782;37.528;2023-02-16T08:51:30;2.93;;;2.03;;
35434;SDS011;21556;55.782;37.528;2023-02-16T08:54:01;4.53;;;2.47;;
35434;SDS011;21556;55.782;37.528;2023-02-16T08:56:29;4.20;;;2.10;;
35434;SDS011;21556;55.782;37.528;2023-02-16T08:58:57;2.60;;;1.88;;
35434;SDS011;21556;55.782;37.528;2023-02-16T09:01:24;3.50;;;2.63;;
35434;SDS011;21556;55.782;37.528;2023-02-16T09:03:51;4.63;;;2.60;;
35434;SDS011;21556;55.782;37.528;2023-02-16T09:06:18;3.37;;;2.53;;
35434;SDS011;21556;55.782;37.528;2023-02-16T09:11:16;6.63;;;3.40;;
35434;SDS011;21556;55.782;37.528;2023-02-16T09:13:43;7.17;;;2.93;;
35434;SDS011;21556;55.782;37.528;2023-02-16T09:16:10;6.00;;;3.20;;
35434;SDS011;21556;55.782;37.528;2023-02-16T09:18:38;4.13;;;2.97;;
35434;SDS011;21556;55.782;37.528;2023-02-16T09:21:09;3.17;;;2.47;;
35434;SDS011;21556;55.782;37.528;2023-02-16T09:23:37;3.57;;;2.50;;
35434;SDS011;21556;55.782;37.528;2023-02-16T09:26:04;2.22;;;1.55;;
35434;SDS011;21556;55.782;37.528;2023-02-16T09:28:33;5.90;;;3.33;;
35434;SDS011;21556;55.782;37.528;2023-02-16T09:30:59;3.13;;;2.73;;
35434;SDS011;21556;55.782;37.528;2023-02-16T09:33:25;5.63;;;2.40;;
35434;SDS011;21556;55.782;37.528;2023-02-16T09:35:52;3.40;;;3.10;;
35434;SDS011;21556;55.782;37.528;2023-02-16T09:38:19;6.93;;;3.10;;
35434;SDS011;21556;55.782;37.528;2023-02-16T09:40:46;3.33;;;2.60;;
35434;SDS011;21556;55.782;37.528;2023-02-16T09:43:23;5.43;;;2.70;;
35434;SDS011;21556;55.782;37.528;2023-02-16T09:46:07;5.13;;;3.10;;
35434;SDS011;21556;55.782;37.528;2023-02-16T09:48:40;3.57;;;2.83;;
35434;SDS011;21556;55.782;37.528;2023-02-16T09:51:17;2.80;;;2.53;;
35434;SDS011;21556;55.782;37.528;2023-02-16T09:53:49;4.90;;;2.50;;
35434;SDS011;21556;55.782;37.528;2023-02-16T09:56:24;4.73;;;3.50;;
35434;SDS011;21556;55.782;37.528;2023-02-16T10:10:03;3.90;;;2.77;;
35434;SDS011;21556;55.782;37.528;2023-02-16T10:12:36;4.00;;;2.53;;
35434;SDS011;21556;55.782;37.528;2023-02-16T10:15:12;4.13;;;2.73;;
35434;SDS011;21556;55.782;37.528;2023-02-16T10:17:44;3.23;;;2.40;;
35434;SDS011;21556;55.782;37.528;2023-02-16T10:20:17;5.63;;;3.13;;
35434;SDS011;21556;55.782;37.528;2023-02-16T10:25:41;2.97;;;2.20;;
35434;SDS011;21556;55.782;37.528;2023-02-16T10:28:28;5.53;;;3.00;;
35434;SDS011;21556;55.782;37.528;2023-02-16T10:31:02;3.93;;;2.53;;
35434;SDS011;21556;55.782;37.528;2023-02-16T10:33:40;3.63;;;2.00;;
35434;SDS011;21556;55.782;37.528;2023-02-16T10:36:27;4.57;;;2.37;;
35434;SDS011;21556;55.782;37.528;2023-02-16T10:42:02;4.70;;;2.00;;
35434;SDS011;21556;55.782;37.528;2023-02-16T10:44:38;3.30;;;2.30;;
35434;SDS011;21556;55.782;37.528;2023-02-16T10:52:43;3.50;;;2.30;;
35434;SDS011;21556;55.782;37.528;2023-02-16T10:55:10;4.43;;;2.13;;
35434;SDS011;21556;55.782;37.528;2023-02-16T10:57:37;3.22;;;2.20;;
35434;SDS011;21556;55.782;37.528;2023-02-16T11:00:25;3.13;;;1.87;;
35434;SDS011;21556;55.782;37.528;2023-02-16T11:02:58;2.40;;;1.90;;
35434;SDS011;21556;55.782;37.528;2023-02-16T11:05:34;3.07;;;2.20;;
35434;SDS011;21556;55.782;37.528;2023-02-16T11:08:02;2.77;;;2.07;;
35434;SDS011;21556;55.782;37.528;2023-02-16T11:10:34;3.13;;;2.20;;
35434;SDS011;21556;55.782;37.528;2023-02-16T11:13:27;2.70;;;2.10;;
35434;SDS011;21556;55.782;37.528;2023-02-16T11:15:59;3.23;;;1.90;;
35434;SDS011;21556;55.782;37.528;2023-02-16T11:18:36;4.73;;;2.50;;
35434;SDS011;21556;55.782;37.528;2023-02-16T11:21:05;3.80;;;2.37;;
35434;SDS011;21556;55.782;37.528;2023-02-16T11:23:33;3.53;;;1.85;;
35434;SDS011;21556;55.782;37.528;2023-02-16T11:26:02;2.78;;;2.40;;
35434;SDS011;21556;55.782;37.528;2023-02-16T11:28:29;2.40;;;1.30;;
35434;SDS011;21556;55.782;37.528;2023-02-16T11:33:34;3.07;;;2.30;;
35434;SDS011;21556;55.782;37.528;2023-02-16T11:36:37;2.87;;;1.80;;
35434;SDS011;21556;55.782;37.528;2023-02-16T11:39:23;2.05;;;1.40;;
35434;SDS011;21556;55.782;37.528;2023-02-16T11:42:02;3.03;;;2.17;;
35434;SDS011;21556;55.782;37.528;2023-02-16T11:44:52;3.77;;;2.37;;
35434;SDS011;21556;55.782;37.528;2023-02-16T11:47:24;3.50;;;2.20;;
35434;SDS011;21556;55.782;37.528;2023-02-16T11:50:36;2.90;;;1.93;;
35434;SDS011;21556;55.782;37.528;2023-02-16T11:52:45;4.07;;;1.97;;
35434;SDS011;21556;55.782;37.528;2023-02-16T11:57:51;1.77;;;1.30;;
35434;SDS011;21556;55.782;37.528;2023-02-16T12:00:19;2.43;;;1.80;;
35434;SDS011;21556;55.782;37.528;2023-02-16T12:03:05;3.93;;;2.37;;
35434;SDS011;21556;55.782;37.528;2023-02-16T12:08:39;3.23;;;2.20;;
35434;SDS011;21556;55.782;37.528;2023-02-16T12:11:44;3.20;;;2.10;;
35434;SDS011;21556;55.782;37.528;2023-02-16T12:14:39;4.03;;;2.50;;
35434;SDS011;21556;55.782;37.528;2023-02-16T12:21:04;4.60;;;1.87;;
35434;SDS011;21556;55.782;37.528;2023-02-16T12:26:35;3.83;;;2.20;;
35434;SDS011;21556;55.782;37.528;2023-02-16T12:29:05;2.83;;;2.00;;
35434;SDS011;21556;55.782;37.528;2023-02-16T12:34:49;2.87;;;2.20;;
35434;SDS011;21556;55.782;37.528;2023-02-16T12:37:36;3.73;;;2.13;;
35434;SDS011;21556;55.782;37.528;2023-02-16T12:46:15;3.58;;;1.92;;
35434;SDS011;21556;55.782;37.528;2023-02-16T12:48:49;4.00;;;2.03;;
35434;SDS011;21556;55.782;37.528;2023-02-16T12:51:29;2.80;;;2.23;;
35434;SDS011;21556;55.782;37.528;2023-02-16T12:54:07;5.10;;;2.37;;
35434;SDS011;21556;55.782;37.528;2023-02-16T12:56:48;2.80;;;2.10;;
35434;SDS011;21556;55.782;37.528;2023-02-16T13:05:42;3.33;;;2.33;;
35434;SDS011;21556;55.782;37.528;2023-02-16T13:14:19;3.27;;;2.27;;
35434;SDS011;21556;55.782;37.528;2023-02-16T13:17:35;4.63;;;3.07;;
35434;SDS011;21556;55.782;37.528;2023-02-16T13:20:46;4.20;;;2.63;;
35434;SDS011;21556;55.782;37.528;2023-02-16T13:38:03;6.73;;;3.03;;
35434;SDS011;21556;55.782;37.528;2023-02-16T13:40:49;3.97;;;2.97;;
35434;SDS011;21556;55.782;37.528;2023-02-16T13:43:29;6.57;;;3.13;;
35434;SDS011;21556;55.782;37.528;2023-02-16T13:46:06;4.10;;;3.63;;
35434;SDS011;21556;55.782;37.528;2023-02-16T13:48:54;4.33;;;3.00;;
35434;SDS011;21556;55.782;37.528;2023-02-16T13:51:21;3.95;;;2.78;;
35434;SDS011;21556;55.782;37.528;2023-02-16T13:54:05;4.03;;;2.70;;
35434;SDS011;21556;55.782;37.528;2023-02-16T13:56:46;3.87;;;2.80;;
35434;SDS011;21556;55.782;37.528;2023-02-16T14:01:44;3.70;;;3.00;;
35434;SDS011;21556;55.782;37.528;2023-02-16T14:06:46;6.63;;;3.40;;
35434;SDS011;21556;55.782;37.528;2023-02-16T14:14:37;7.03;;;3.30;;
35434;SDS011;21556;55.782;37.528;2023-02-16T14:19:47;4.43;;;2.83;;
35434;SDS011;21556;55.782;37.528;2023-02-16T14:30:20;4.83;;;2.90;;
35434;SDS011;21556;55.782;37.528;2023-02-16T14:36:23;4.57;;;3.07;;
35434;SDS011;21556;55.782;37.528;2023-02-16T14:41:10;3.73;;;2.73;;
35434;SDS011;21556;55.782;37.528;2023-02-16T14:44:18;3.97;;;2.70;;
35434;SDS011;21556;55.782;37.528;2023-02-16T14:49:50;4.33;;;3.03;;
35434;SDS011;21556;55.782;37.528;2023-02-16T14:55:05;4.15;;;2.85;;
35434;SDS011;21556;55.782;37.528;2023-02-16T15:00:41;4.97;;;3.33;;
35434;SDS011;21556;55.782;37.528;2023-02-16T15:03:17;4.70;;;3.30;;
35434;SDS011;21556;55.782;37.528;2023-02-16T15:05:54;4.73;;;3.43;;
35434;SDS011;21556;55.782;37.528;2023-02-16T15:08:27;5.00;;;3.17;;
35434;SDS011;21556;55.782;37.528;2023-02-16T15:11:21;5.07;;;3.57;;
35434;SDS011;21556;55.782;37.528;2023-02-16T15:13:53;3.93;;;3.10;;
35434;SDS011;21556;55.782;37.528;2023-02-16T15:16:30;5.23;;;3.47;;
35434;SDS011;21556;55.782;37.528;2023-02-16T15:19:02;7.03;;;3.47;;
35434;SDS011;21556;55.782;37.528;2023-02-16T15:21:36;5.47;;;3.80;;
35434;SDS011;21556;55.782;37.528;2023-02-16T15:24:19;4.50;;;3.30;;
35434;SDS011;21556;55.782;37.528;2023-02-16T15:30:02;11.03;;;5.10;;
35434;SDS011;21556;55.782;37.528;2023-02-16T15:33:05;5.07;;;4.00;;
35434;SDS011;21556;55.782;37.528;2023-02-16T15:35:42;4.80;;;3.43;;
35434;SDS011;21556;55.782;37.528;2023-02-16T15:41:31;7.10;;;4.57;;
35434;SDS011;21556;55.782;37.528;2023-02-16T15:44:06;6.23;;;4.13;;
35434;SDS011;21556;55.782;37.528;2023-02-16T15:50:32;6.70;;;4.83;;
35434;SDS011;21556;55.782;37.528;2023-02-16T15:53:10;7.17;;;4.67;;
35434;SDS011;21556;55.782;37.528;2023-02-16T15:59:38;6.23;;;4.67;;
35434;SDS011;21556;55.782;37.528;2023-02-16T16:02:59;7.83;;;5.70;;
35434;SDS011;21556;55.782;37.528;2023-02-16T16:06:01;8.03;;;5.47;;
35434;SDS011;21556;55.782;37.528;2023-02-16T16:09:26;7.82;;;5.03;;
35434;SDS011;21556;55.782;37.528;2023-02-16T16:12:16;8.87;;;5.00;;
35434;SDS011;21556;55.782;37.528;2023-02-16T16:15:09;8.43;;;6.30;;
35434;SDS011;21556;55.782;37.528;2023-02-16T16:17:49;8.80;;;5.83;;
35434;SDS011;21556;55.782;37.528;2023-02-16T16:21:21;7.40;;;4.90;;
35434;SDS011;21556;55.782;37.528;2023-02-16T16:30:49;8.77;;;5.57;;
35434;SDS011;21556;55.782;37.528;2023-02-16T16:36:42;9.90;;;5.97;;
35434;SDS011;21556;55.782;37.528;2023-02-16T16:39:44;6.63;;;4.93;;
35434;SDS011;21556;55.782;37.528;2023-02-16T16:46:27;9.33;;;5.50;;
35434;SDS011;21556;55.782;37.528;2023-02-16T16:49:00;8.97;;;5.37;;
35434;SDS011;21556;55.782;37.528;2023-02-16T16:54:07;8.80;;;6.67;;
35434;SDS011;21556;55.782;37.528;2023-02-16T16:57:31;7.63;;;5.50;;
35434;SDS011;21556;55.782;37.528;2023-02-16T16:59:52;10.67;;;7.17;;
35434;SDS011;21556;55.782;37.528;2023-02-16T17:02:20;10.17;;;7.03;;
35434;SDS011;21556;55.782;37.528;2023-02-16T17:04:54;9.07;;;5.87;;
35434;SDS011;21556;55.782;37.528;2023-02-16T17:07:19;7.90;;;5.50;;
35434;SDS011;21556;55.782;37.528;2023-02-16T17:09:48;9.87;;;5.67;;
35434;SDS011;21556;55.782;37.528;2023-02-16T17:12:18;10.70;;;6.30;;
35434;SDS011;21556;55.782;37.528;2023-02-16T17:14:46;9.07;;;5.93;;
35434;SDS011;21556;55.782;37.528;2023-02-16T17:17:12;7.90;;;5.47;;
35434;SDS011;21556;55.782;37.528;2023-02-16T17:19:38;7.40;;;4.20;;
35434;SDS011;21556;55.782;37.528;2023-02-16T17:22:37;7.17;;;5.57;;
35434;SDS011;21556;55.782;37.528;2023-02-16T17:24:56;10.17;;;5.67;;
35434;SDS011;21556;55.782;37.528;2023-02-16T17:27:22;8.83;;;6.10;;
35434;SDS011;21556;55.782;37.528;2023-02-16T17:29:48;8.57;;;5.73;;
35434;SDS011;21556;55.782;37.528;2023-02-16T17:32:14;8.23;;;5.67;;
35434;SDS011;21556;55.782;37.528;2023-02-16T17:34:40;9.90;;;5.37;;
35434;SDS011;21556;55.782;37.528;2023-02-16T17:37:06;9.80;;;6.57;;
35434;SDS011;21556;55.782;37.528;2023-02-16T17:39:32;10.40;;;6.53;;
35434;SDS011;21556;55.782;37.528;2023-02-16T17:41:59;9.73;;;6.87;;
35434;SDS011;21556;55.782;37.528;2023-02-16T17:44:25;9.77;;;6.83;;
35434;SDS011;21556;55.782;37.528;2023-02-16T17:46:54;10.10;;;6.17;;
35434;SDS011;21556;55.782;37.528;2023-02-16T17:49:20;12.50;;;6.50;;
35434;SDS011;21556;55.782;37.528;2023-02-16T17:51:46;10.63;;;7.30;;
35434;SDS011;21556;55.782;37.528;2023-02-16T17:54:11;10.13;;;6.17;;
35434;SDS011;21556;55.782;37.528;2023-02-16T17:56:37;9.27;;;6.10;;
35434;SDS011;21556;55.782;37.528;2023-02-16T17:59:06;7.07;;;5.40;;
35434;SDS011;21556;55.782;37.528;2023-02-16T18:01:34;10.00;;;6.37;;
35434;SDS011;21556;55.782;37.528;2023-02-16T18:04:03;7.97;;;5.30;;
35434;SDS011;21556;55.782;37.528;2023-02-16T18:06:30;8.73;;;6.20;;
35434;SDS011;21556;55.782;37.528;2023-02-16T18:08:56;8.90;;;5.90;;
35434;SDS011;21556;55.782;37.528;2023-02-16T18:11:22;10.00;;;6.20;;